Time,TemperatureF,DewpointF,PressureIn,WindDirection,WindDirectionDegrees,WindSpeedMPH,WindSpeedGustMPH,Humidity,HourlyPrecipIn,Conditions,Clouds,dailyrainin,SoftwareType,DateUTC
2013-11-03 00:01:00,44.1,26.6,28.53,SSE,164,0.0,0.0,50,0.00,,---,0.00,VWS V14.01,2013-11-03 05:01:00,
2013-11-03 00:06:00,43.9,26.5,28.53,SSE,164,0.0,0.0,50,0.00,,---,0.00,VWS V14.01,2013-11-03 05:06:00,
2013-11-03 00:11:00,43.7,26.3,28.53,SSE,164,0.0,2.7,50,0.00,,---,0.00,VWS V14.01,2013-11-03 05:11:00,
2013-11-03 00:16:00,43.3,26.0,28.53,SSE,164,0.0,2.7,50,0.00,,---,0.00,VWS V14.01,2013-11-03 05:16:00,
2013-11-03 00:21:00,43.0,26.1,28.53,SSE,152,4.0,4.0,51,0.00,,---,0.00,VWS V14.01,2013-11-03 05:21:00,
2013-11-03 00:26:00,43.0,26.6,28.53,SE,130,0.0,4.0,52,0.00,,---,0.00,VWS V14.01,2013-11-03 05:26:00,
2013-11-03 00:31:00,42.8,26.4,28.53,SE,126,0.0,4.0,52,0.00,,---,0.00,VWS V14.01,2013-11-03 05:31:00,
2013-11-03 00:36:00,42.8,26.9,28.53,SE,128,2.7,4.0,53,0.00,,---,0.00,VWS V14.01,2013-11-03 05:36:00,
2013-11-03 00:42:00,42.8,26.9,28.53,SE,128,3.1,4.0,53,0.00,,---,0.00,VWS V14.01,2013-11-03 05:42:00,
2013-11-03 00:47:00,43.0,27.0,28.53,SSE,152,3.6,4.0,53,0.00,,---,0.00,VWS V14.01,2013-11-03 05:47:00,
2013-11-03 00:52:00,43.0,27.5,28.53,SSE,152,3.1,5.4,54,0.00,,---,0.00,VWS V14.01,2013-11-03 05:52:00,
2013-11-03 00:57:00,43.3,27.8,28.53,SE,136,3.1,7.6,54,0.00,,---,0.00,VWS V14.01,2013-11-03 05:57:00,
2013-11-03 01:00:00,45.1,26.6,28.50,ESE,119,2.7,6.3,48,0.00,,---,0.00,VWS V14.01,2013-11-03 06:00:00,
2013-11-03 01:01:00,45.1,27.1,28.50,SE,131,2.7,6.3,49,0.00,,---,0.00,VWS V14.01,2013-11-03 06:01:00,
2013-11-03 01:02:00,43.5,28.0,28.53,SE,140,4.0,4.0,54,0.00,,---,0.00,VWS V14.01,2013-11-03 06:02:00,
2013-11-03 01:03:00,45.1,27.1,28.50,SSE,164,4.0,6.3,49,0.00,,---,0.00,VWS V14.01,2013-11-03 06:03:00,
2013-11-03 01:04:00,45.1,27.1,28.50,SE,145,2.7,6.3,49,0.00,,---,0.00,VWS V14.01,2013-11-03 06:04:00,
2013-11-03 01:05:00,45.1,27.1,28.50,SSW,193,0.0,6.3,49,0.00,,---,0.00,VWS V14.01,2013-11-03 06:05:00,
2013-11-03 01:06:00,45.1,27.1,28.50,South,187,3.1,6.3,49,0.00,,---,0.00,VWS V14.01,2013-11-03 06:06:00,
2013-11-03 01:07:00,43.7,27.7,28.53,South,181,3.6,4.0,53,0.00,,---,0.00,VWS V14.01,2013-11-03 06:07:00,
2013-11-03 01:08:00,45.1,27.1,28.50,SSW,202,2.2,6.3,49,0.00,,---,0.00,VWS V14.01,2013-11-03 06:08:00,
2013-11-03 01:09:00,45.1,27.1,28.50,SSE,155,3.6,6.3,49,0.00,,---,0.00,VWS V14.01,2013-11-03 06:09:00,
2013-11-03 01:10:00,45.0,27.0,28.50,SSE,159,3.1,6.3,49,0.00,,---,0.00,VWS V14.01,2013-11-03 06:10:00,
2013-11-03 01:11:00,45.0,27.0,28.50,SE,130,4.0,6.3,49,0.00,,---,0.00,VWS V14.01,2013-11-03 06:11:00,
2013-11-03 01:12:00,43.9,27.4,28.50,SSE,168,4.0,4.0,52,0.00,,---,0.00,VWS V14.01,2013-11-03 06:12:00,
2013-11-03 01:13:00,45.0,27.0,28.50,South,176,2.7,6.3,49,0.00,,---,0.00,VWS V14.01,2013-11-03 06:13:00,
2013-11-03 01:14:00,45.0,27.0,28.50,South,175,2.7,6.3,49,0.00,,---,0.00,VWS V14.01,2013-11-03 06:14:00,
2013-11-03 01:15:00,45.0,27.0,28.50,South,175,2.7,6.3,49,0.00,,---,0.00,VWS V14.01,2013-11-03 06:15:00,
2013-11-03 01:16:00,45.0,27.0,28.50,South,178,3.6,6.3,49,0.00,,---,0.00,VWS V14.01,2013-11-03 06:16:00,
2013-11-03 01:17:00,44.1,27.6,28.50,ESE,111,3.1,4.9,52,0.00,,---,0.00,VWS V14.01,2013-11-03 06:17:00,
2013-11-03 01:18:00,44.8,26.8,28.50,SE,142,3.6,6.3,49,0.00,,---,0.00,VWS V14.01,2013-11-03 06:18:00,
2013-11-03 01:19:00,44.8,26.8,28.50,SE,142,4.0,6.3,49,0.00,,---,0.00,VWS V14.01,2013-11-03 06:19:00,
2013-11-03 01:20:00,44.8,26.8,28.50,SE,142,4.0,6.3,49,0.00,,---,0.00,VWS V14.01,2013-11-03 06:20:00,
2013-11-03 01:21:00,44.8,26.8,28.50,SE,142,4.0,6.3,49,0.00,,---,0.00,VWS V14.01,2013-11-03 06:21:00,
2013-11-03 01:22:00,44.8,26.8,28.50,ESE,108,3.6,6.3,49,0.00,,---,0.00,VWS V14.01,2013-11-03 06:22:00,
2013-11-03 01:23:00,44.2,27.3,28.50,SE,129,4.0,6.3,51,0.00,,---,0.00,VWS V14.01,2013-11-03 06:23:00,
2013-11-03 01:24:00,44.8,26.8,28.50,SE,131,3.1,6.3,49,0.00,,---,0.00,VWS V14.01,2013-11-03 06:24:00,
2013-11-03 01:25:00,44.8,26.8,28.50,SE,131,3.1,6.3,49,0.00,,---,0.00,VWS V14.01,2013-11-03 06:25:00,
2013-11-03 01:26:00,44.8,26.8,28.50,SE,131,3.1,6.3,49,0.00,,---,0.00,VWS V14.01,2013-11-03 06:26:00,
2013-11-03 01:27:00,44.8,26.8,28.50,SE,131,3.1,6.3,49,0.00,,---,0.00,VWS V14.01,2013-11-03 06:27:00,
2013-11-03 01:28:00,44.8,27.3,28.50,SE,140,3.6,6.3,50,0.00,,---,0.00,VWS V14.01,2013-11-03 06:28:00,
2013-11-03 01:29:00,45.0,27.0,28.50,SSE,156,5.8,6.3,49,0.00,,---,0.00,VWS V14.01,2013-11-03 06:29:00,
2013-11-03 01:30:00,45.0,26.5,28.50,SSE,168,4.0,8.1,48,0.00,,---,0.00,VWS V14.01,2013-11-03 06:30:00,
2013-11-03 01:32:00,45.0,26.5,28.50,South,171,2.7,8.1,48,0.00,,---,0.00,VWS V14.01,2013-11-03 06:32:00,
2013-11-03 01:33:00,45.1,27.6,28.50,SE,134,3.6,6.3,50,0.00,,---,0.00,VWS V14.01,2013-11-03 06:33:00,
2013-11-03 01:35:00,45.1,26.6,28.50,SE,144,3.6,8.1,48,0.00,,---,0.00,VWS V14.01,2013-11-03 06:35:00,
2013-11-03 01:36:00,45.1,26.6,28.50,South,171,3.6,8.1,48,0.00,,---,0.00,VWS V14.01,2013-11-03 06:36:00,
2013-11-03 01:37:00,45.1,26.6,28.50,SE,134,4.0,8.1,48,0.00,,---,0.00,VWS V14.01,2013-11-03 06:37:00,
2013-11-03 01:38:00,45.3,27.3,28.50,SE,128,2.2,6.3,49,0.00,,---,0.00,VWS V14.01,2013-11-03 06:38:00,
2013-11-03 01:39:00,45.1,26.6,28.50,SE,125,3.1,8.1,48,0.00,,---,0.00,VWS V14.01,2013-11-03 06:39:00,
2013-11-03 01:40:00,45.1,26.6,28.50,South,181,2.7,8.1,48,0.00,,---,0.00,VWS V14.01,2013-11-03 06:40:00,
2013-11-03 01:41:00,45.3,26.8,28.50,South,181,2.7,8.1,48,0.00,,---,0.00,VWS V14.01,2013-11-03 06:41:00,
2013-11-03 01:42:00,45.3,26.8,28.50,ESE,122,4.9,8.1,48,0.00,,---,0.00,VWS V14.01,2013-11-03 06:42:00,
2013-11-03 01:43:00,45.3,27.3,28.50,SSE,149,3.1,6.3,49,0.00,,---,0.00,VWS V14.01,2013-11-03 06:43:00,
2013-11-03 01:44:00,45.3,26.8,28.50,ESE,122,4.9,8.1,48,0.00,,---,0.00,VWS V14.01,2013-11-03 06:44:00,
2013-11-03 01:45:00,45.3,26.8,28.50,SE,128,3.6,8.1,48,0.00,,---,0.00,VWS V14.01,2013-11-03 06:45:00,
2013-11-03 01:48:00,45.3,27.3,28.50,SE,146,2.7,6.3,49,0.00,,---,0.00,VWS V14.01,2013-11-03 06:48:00,
2013-11-03 01:53:00,45.3,27.3,28.50,SSE,151,3.6,6.3,49,0.00,,---,0.00,VWS V14.01,2013-11-03 06:53:00,
2013-11-03 01:58:00,45.1,26.6,28.50,SSE,148,4.0,6.3,48,0.00,,---,0.00,VWS V14.01,2013-11-03 06:58:00,
2013-11-03 01:19:00,44.8,26.8,28.50,SE,142,4.0,6.3,49,0.00,,---,0.00,VWS V14.01,2013-11-03 07:19:00,
2013-11-03 01:25:00,44.8,26.8,28.50,SE,131,3.1,6.3,49,0.00,,---,0.00,VWS V14.01,2013-11-03 07:25:00,
2013-11-03 01:30:00,45.0,26.5,28.50,SSE,157,3.1,8.1,48,0.00,,---,0.00,VWS V14.01,2013-11-03 07:30:00,
2013-11-03 01:35:00,45.1,26.6,28.50,SE,144,3.6,8.1,48,0.00,,---,0.00,VWS V14.01,2013-11-03 07:35:00,
2013-11-03 01:40:00,45.1,26.6,28.50,South,181,2.7,8.1,48,0.00,,---,0.00,VWS V14.01,2013-11-03 07:40:00,
2013-11-03 01:45:00,45.3,26.8,28.50,ESE,120,3.1,8.1,48,0.00,,---,0.00,VWS V14.01,2013-11-03 07:45:00,
2013-11-03 01:50:00,45.5,26.5,28.50,South,177,3.1,8.1,47,0.00,,---,0.00,VWS V14.01,2013-11-03 07:50:00,
2013-11-03 01:56:00,45.5,26.5,28.50,SE,139,3.6,8.1,47,0.00,,---,0.00,VWS V14.01,2013-11-03 07:56:00,
2013-11-03 02:01:00,45.7,26.6,28.50,ESE,122,2.7,2.7,47,0.00,,---,0.00,VWS V14.01,2013-11-03 08:01:00,
2013-11-03 02:06:00,45.7,26.1,28.50,SE,136,3.6,5.8,46,0.00,,---,0.00,VWS V14.01,2013-11-03 08:06:00,
2013-11-03 02:11:00,45.7,26.1,28.50,East,96,2.7,5.8,46,0.00,,---,0.00,VWS V14.01,2013-11-03 08:11:00,
2013-11-03 02:16:00,45.7,26.1,28.50,ESE,123,3.1,5.8,46,0.00,,---,0.00,VWS V14.01,2013-11-03 08:16:00,
2013-11-03 02:21:00,45.7,26.1,28.50,SSE,154,2.7,5.8,46,0.00,,---,0.00,VWS V14.01,2013-11-03 08:21:00,
2013-11-03 02:26:00,45.7,25.6,28.50,SE,139,3.6,5.8,45,0.00,,---,0.00,VWS V14.01,2013-11-03 08:26:00,
2013-11-03 02:31:00,45.7,25.6,28.50,SE,141,4.0,5.8,45,0.00,,---,0.00,VWS V14.01,2013-11-03 08:31:00,
2013-11-03 02:36:00,45.5,25.9,28.50,ESE,115,2.7,5.8,46,0.00,,---,0.00,VWS V14.01,2013-11-03 08:36:00,
2013-11-03 02:42:00,45.3,25.8,28.50,SE,130,2.7,5.8,46,0.00,,---,0.00,VWS V14.01,2013-11-03 08:42:00,
2013-11-03 02:47:00,45.3,25.8,28.50,SSW,195,2.7,6.3,46,0.00,,---,0.00,VWS V14.01,2013-11-03 08:47:00,
2013-11-03 02:52:00,45.1,26.1,28.50,SSE,165,5.4,6.3,47,0.00,,---,0.00,VWS V14.01,2013-11-03 08:52:00,
2013-11-03 02:57:00,45.1,26.1,28.47,SSW,193,4.0,6.3,47,0.00,,---,0.00,VWS V14.01,2013-11-03 08:57:00,
2013-11-03 03:02:00,45.1,26.1,28.47,SSE,147,3.1,6.3,47,0.00,,---,0.00,VWS V14.01,2013-11-03 09:02:00,
2013-11-03 03:07:00,45.3,26.3,28.47,SE,141,3.6,7.6,47,0.00,,---,0.00,VWS V14.01,2013-11-03 09:07:00,
2013-11-03 03:12:00,45.3,26.3,28.47,ESE,120,5.8,7.6,47,0.00,,---,0.00,VWS V14.01,2013-11-03 09:12:00,
2013-11-03 03:17:00,45.3,26.3,28.47,ESE,116,3.1,7.6,47,0.00,,---,0.00,VWS V14.01,2013-11-03 09:17:00,
2013-11-03 03:22:00,45.3,26.3,28.47,ESE,122,2.7,7.6,47,0.00,,---,0.00,VWS V14.01,2013-11-03 09:22:00,
2013-11-03 03:28:00,45.5,26.5,28.47,SE,136,4.0,7.6,47,0.00,,---,0.00,VWS V14.01,2013-11-03 09:28:00,
2013-11-03 03:33:00,45.5,26.5,28.47,SE,141,3.6,7.6,47,0.00,,---,0.00,VWS V14.01,2013-11-03 09:33:00,
2013-11-03 03:38:00,45.5,26.5,28.47,SSE,168,4.0,7.6,47,0.00,,---,0.00,VWS V14.01,2013-11-03 09:38:00,
2013-11-03 03:43:00,45.5,26.5,28.47,SSE,149,4.0,7.6,47,0.00,,---,0.00,VWS V14.01,2013-11-03 09:43:00,
2013-11-03 03:48:00,45.3,26.3,28.47,SE,137,5.4,7.6,47,0.00,,---,0.00,VWS V14.01,2013-11-03 09:48:00,
2013-11-03 03:53:00,45.3,26.3,28.47,SE,139,2.7,7.6,47,0.00,,---,0.00,VWS V14.01,2013-11-03 09:53:00,
2013-11-03 03:58:00,45.3,26.8,28.47,ESE,116,5.8,7.6,48,0.00,,---,0.00,VWS V14.01,2013-11-03 09:58:00,
2013-11-03 04:03:00,45.3,26.8,28.47,SE,130,3.1,4.9,48,0.00,,---,0.00,VWS V14.01,2013-11-03 10:03:00,
2013-11-03 04:08:00,45.3,26.8,28.47,ESE,119,5.4,7.6,48,0.00,,---,0.00,VWS V14.01,2013-11-03 10:08:00,
2013-11-03 04:14:00,45.3,26.8,28.44,SE,143,4.0,8.7,48,0.00,,---,0.00,VWS V14.01,2013-11-03 10:14:00,
2013-11-03 04:19:00,45.3,26.8,28.44,SE,144,4.0,8.7,48,0.00,,---,0.00,VWS V14.01,2013-11-03 10:19:00,
2013-11-03 04:24:00,45.3,26.8,28.44,ESE,116,5.8,8.7,48,0.00,,---,0.00,VWS V14.01,2013-11-03 10:24:00,
2013-11-03 04:29:00,45.3,26.8,28.44,SE,135,4.9,8.7,48,0.00,,---,0.00,VWS V14.01,2013-11-03 10:29:00,
2013-11-03 04:34:00,45.3,26.8,28.44,South,176,4.0,8.7,48,0.00,,---,0.00,VWS V14.01,2013-11-03 10:34:00,
2013-11-03 04:39:00,45.3,26.8,28.44,SSE,152,4.0,8.7,48,0.00,,---,0.00,VWS V14.01,2013-11-03 10:39:00,
2013-11-03 04:44:00,45.1,26.6,28.44,ESE,123,6.3,8.7,48,0.00,,---,0.00,VWS V14.01,2013-11-03 10:44:00,
2013-11-03 04:49:00,45.1,26.6,28.44,SSE,167,4.0,8.7,48,0.00,,---,0.00,VWS V14.01,2013-11-03 10:49:00,
2013-11-03 04:54:00,45.1,26.6,28.44,SE,128,3.1,8.7,48,0.00,,---,0.00,VWS V14.01,2013-11-03 10:54:00,
2013-11-03 05:00:00,45.1,26.6,28.44,SE,128,4.5,8.7,48,0.00,,---,0.00,VWS V14.01,2013-11-03 11:00:00,
2013-11-03 05:05:00,45.1,27.1,28.44,ESE,116,3.6,7.6,49,0.00,,---,0.00,VWS V14.01,2013-11-03 11:05:00,
2013-11-03 05:10:00,45.0,27.0,28.44,SE,138,3.6,7.6,49,0.00,,---,0.00,VWS V14.01,2013-11-03 11:10:00,
2013-11-03 05:15:00,45.0,27.0,28.44,SE,145,5.4,7.6,49,0.00,,---,0.00,VWS V14.01,2013-11-03 11:15:00,
2013-11-03 05:20:00,44.8,26.8,28.44,SSE,159,8.1,10.1,49,0.00,,---,0.00,VWS V14.01,2013-11-03 11:20:00,
2013-11-03 05:25:00,44.8,26.8,28.44,SE,143,2.7,10.1,49,0.00,,---,0.00,VWS V14.01,2013-11-03 11:25:00,
2013-11-03 05:30:00,44.8,27.3,28.44,SE,139,5.8,10.1,50,0.00,,---,0.00,VWS V14.01,2013-11-03 11:30:00,
2013-11-03 05:35:00,44.8,27.3,28.44,NE,34,6.3,10.1,50,0.00,,---,0.00,VWS V14.01,2013-11-03 11:35:00,
2013-11-03 05:40:00,44.6,27.1,28.44,ESE,115,4.9,10.1,50,0.00,,---,0.00,VWS V14.01,2013-11-03 11:40:00,
2013-11-03 05:46:00,44.6,27.1,28.44,SE,142,3.1,10.1,50,0.00,,---,0.00,VWS V14.01,2013-11-03 11:46:00,
2013-11-03 05:51:00,44.4,27.4,28.44,ESE,122,3.1,10.1,51,0.00,,---,0.00,VWS V14.01,2013-11-03 11:51:00,
2013-11-03 05:56:00,44.2,27.3,28.41,South,175,4.0,10.1,51,0.00,,---,0.00,VWS V14.01,2013-11-03 11:56:00,
2013-11-03 06:01:00,44.2,27.3,28.41,ESE,112,5.4,5.4,51,0.00,,---,0.00,VWS V14.01,2013-11-03 12:01:00,
2013-11-03 06:06:00,44.2,27.3,28.41,SE,131,5.4,5.4,51,0.00,,---,0.00,VWS V14.01,2013-11-03 12:06:00,
2013-11-03 06:11:00,44.2,27.3,28.41,ESE,116,2.7,7.6,51,0.00,,---,0.00,VWS V14.01,2013-11-03 12:11:00,
2013-11-03 06:16:00,44.2,27.3,28.41,WSW,237,5.8,7.6,51,0.00,,---,0.00,VWS V14.01,2013-11-03 12:16:00,
2013-11-03 06:21:00,44.2,27.3,28.41,SE,142,3.6,8.3,51,0.00,,---,0.00,VWS V14.01,2013-11-03 12:21:00,
2013-11-03 06:26:00,44.2,27.3,28.41,SSE,150,3.6,8.3,51,0.00,,---,0.00,VWS V14.01,2013-11-03 12:26:00,
2013-11-03 06:32:00,44.2,27.3,28.41,South,184,4.0,8.3,51,0.00,,---,0.00,VWS V14.01,2013-11-03 12:32:00,
2013-11-03 06:37:00,44.2,27.3,28.41,South,179,2.7,8.3,51,0.00,,---,0.00,VWS V14.01,2013-11-03 12:37:00,
2013-11-03 06:42:00,44.2,27.3,28.41,ESE,107,5.4,8.3,51,0.00,,---,0.00,VWS V14.01,2013-11-03 12:42:00,
2013-11-03 06:47:00,44.4,27.4,28.41,SSE,154,3.1,8.3,51,0.00,,---,0.00,VWS V14.01,2013-11-03 12:47:00,
2013-11-03 06:52:00,44.6,27.1,28.41,SE,143,5.4,8.3,50,0.00,,---,0.00,VWS V14.01,2013-11-03 12:52:00,
2013-11-03 06:57:00,44.8,27.3,28.41,ESE,106,3.6,8.3,50,0.00,,---,0.00,VWS V14.01,2013-11-03 12:57:00,
2013-11-03 07:02:00,45.0,27.5,28.41,SE,134,5.8,8.1,50,0.00,,---,0.00,VWS V14.01,2013-11-03 13:02:00,
2013-11-03 07:08:00,45.1,27.1,28.41,SE,130,7.6,10.1,49,0.00,,---,0.00,VWS V14.01,2013-11-03 13:08:00,
2013-11-03 07:13:00,45.3,27.3,28.41,SE,130,4.5,10.1,49,0.00,,---,0.00,VWS V14.01,2013-11-03 13:13:00,
2013-11-03 07:18:00,45.7,27.6,28.41,South,178,5.8,10.1,49,0.00,,---,0.00,VWS V14.01,2013-11-03 13:18:00,
2013-11-03 07:23:00,46.0,27.5,28.41,East,97,4.0,10.1,48,0.00,,---,0.00,VWS V14.01,2013-11-03 13:23:00,
2013-11-03 07:28:00,46.4,27.3,28.41,SSE,161,4.9,10.1,47,0.00,,---,0.00,VWS V14.01,2013-11-03 13:28:00,
2013-11-03 07:33:00,46.9,27.3,28.41,SSE,153,5.4,10.1,46,0.00,,---,0.00,VWS V14.01,2013-11-03 13:33:00,
2013-11-03 07:38:00,47.3,27.0,28.41,SE,142,6.7,10.5,45,0.00,,---,0.00,VWS V14.01,2013-11-03 13:38:00,
2013-11-03 07:43:00,47.5,27.2,28.41,ESE,122,5.4,10.5,45,0.00,,---,0.00,VWS V14.01,2013-11-03 13:43:00,
2013-11-03 07:48:00,47.7,27.4,28.41,ESE,123,6.3,10.5,45,0.00,,---,0.00,VWS V14.01,2013-11-03 13:48:00,
2013-11-03 07:54:00,47.7,27.4,28.41,SSE,156,8.7,10.5,45,0.00,,---,0.00,VWS V14.01,2013-11-03 13:54:00,
2013-11-03 07:59:00,47.8,27.0,28.38,East,94,6.7,10.5,44,0.00,,---,0.00,VWS V14.01,2013-11-03 13:59:00,
2013-11-03 08:04:00,47.8,27.0,28.38,SE,140,6.3,11.0,44,0.00,,---,0.00,VWS V14.01,2013-11-03 14:04:00,
2013-11-03 08:09:00,48.2,27.3,28.41,ESE,117,5.8,11.0,44,0.00,,---,0.00,VWS V14.01,2013-11-03 14:09:00,
2013-11-03 08:14:00,48.4,26.9,28.41,South,171,2.7,11.0,43,0.00,,---,0.00,VWS V14.01,2013-11-03 14:14:00,
2013-11-03 08:19:00,48.4,26.9,28.41,SE,128,5.4,14.5,43,0.00,,---,0.00,VWS V14.01,2013-11-03 14:19:00,
2013-11-03 08:24:00,48.6,27.1,28.41,East,100,5.8,14.5,43,0.00,,---,0.00,VWS V14.01,2013-11-03 14:24:00,
2013-11-03 08:29:00,48.7,27.8,28.41,ESE,110,7.6,14.5,44,0.00,,---,0.00,VWS V14.01,2013-11-03 14:29:00,
2013-11-03 08:34:00,48.7,27.3,28.41,SE,138,5.8,14.5,43,0.00,,---,0.00,VWS V14.01,2013-11-03 14:34:00,
2013-11-03 08:40:00,48.9,27.4,28.38,SSE,147,5.8,14.5,43,0.00,,---,0.00,VWS V14.01,2013-11-03 14:40:00,
2013-11-03 08:45:00,49.5,27.3,28.38,SSE,165,10.1,14.5,42,0.00,,---,0.00,VWS V14.01,2013-11-03 14:45:00,
2013-11-03 08:50:00,49.6,27.5,28.38,SE,127,8.1,14.5,42,0.00,,---,0.00,VWS V14.01,2013-11-03 14:50:00,
2013-11-03 08:55:00,49.8,27.7,28.38,ESE,108,3.6,14.5,42,0.00,,---,0.00,VWS V14.01,2013-11-03 14:55:00,
2013-11-03 09:00:00,49.8,27.7,28.38,SSE,154,7.6,7.6,42,0.00,,---,0.00,VWS V14.01,2013-11-03 15:00:00,
2013-11-03 09:05:00,50.0,27.8,28.38,SSE,165,5.8,10.5,42,0.00,,---,0.00,VWS V14.01,2013-11-03 15:05:00,
2013-11-03 09:10:00,50.2,28.0,28.38,SE,140,8.1,10.5,42,0.00,,---,0.00,VWS V14.01,2013-11-03 15:10:00,
2013-11-03 09:16:00,50.5,27.7,28.38,ESE,117,9.2,11.0,41,0.00,,---,0.00,VWS V14.01,2013-11-03 15:16:00,
2013-11-03 09:21:00,50.9,28.1,28.38,West,279,5.8,12.3,41,0.00,,---,0.00,VWS V14.01,2013-11-03 15:21:00,
2013-11-03 09:26:00,51.3,28.4,28.38,SE,146,5.8,15.9,41,0.00,,---,0.00,VWS V14.01,2013-11-03 15:26:00,
2013-11-03 09:31:00,51.4,28.5,28.38,South,176,10.5,15.9,41,0.00,,---,0.00,VWS V14.01,2013-11-03 15:31:00,
2013-11-03 09:36:00,51.6,28.7,28.38,SE,125,5.8,15.9,41,0.00,,---,0.00,VWS V14.01,2013-11-03 15:36:00,
2013-11-03 09:41:00,52.0,28.4,28.35,SSE,159,11.0,15.9,40,0.00,,---,0.00,VWS V14.01,2013-11-03 15:41:00,
2013-11-03 09:46:00,52.5,28.3,28.35,South,183,10.5,15.9,39,0.00,,---,0.00,VWS V14.01,2013-11-03 15:46:00,
2013-11-03 09:51:00,53.4,29.1,28.35,SSE,161,5.8,15.9,39,0.00,,---,0.00,VWS V14.01,2013-11-03 15:51:00,
2013-11-03 09:56:00,54.1,29.1,28.35,ESE,118,5.4,15.9,38,0.00,,---,0.00,VWS V14.01,2013-11-03 15:56:00,
2013-11-03 10:02:00,54.0,29.0,28.35,ESE,113,5.4,10.5,38,0.00,,---,0.00,VWS V14.01,2013-11-03 16:02:00,
2013-11-03 10:07:00,53.4,29.1,28.35,ESE,114,8.7,11.0,39,0.00,,---,0.00,VWS V14.01,2013-11-03 16:07:00,
2013-11-03 10:12:00,53.6,28.6,28.35,ENE,78,5.8,11.9,38,0.00,,---,0.00,VWS V14.01,2013-11-03 16:12:00,
2013-11-03 10:17:00,54.1,29.1,28.35,SSE,157,8.3,12.8,38,0.00,,---,0.00,VWS V14.01,2013-11-03 16:17:00,
2013-11-03 10:22:00,54.7,29.6,28.35,ESE,109,5.8,12.8,38,0.00,,---,0.00,VWS V14.01,2013-11-03 16:22:00,
2013-11-03 10:27:00,55.0,29.3,28.35,SSE,165,10.5,13.2,37,0.00,,---,0.00,VWS V14.01,2013-11-03 16:27:00,
2013-11-03 10:32:00,55.4,29.6,28.35,SE,124,7.6,13.2,37,0.00,,---,0.00,VWS V14.01,2013-11-03 16:32:00,
2013-11-03 10:37:00,55.4,29.6,28.35,SSE,162,8.7,13.2,37,0.00,,---,0.00,VWS V14.01,2013-11-03 16:37:00,
2013-11-03 10:42:00,55.6,29.7,28.35,SSW,196,6.3,15.0,37,0.00,,---,0.00,VWS V14.01,2013-11-03 16:42:00,
2013-11-03 10:48:00,55.9,30.1,28.35,ESE,117,7.6,15.0,37,0.00,,---,0.00,VWS V14.01,2013-11-03 16:48:00,
2013-11-03 10:53:00,56.1,29.5,28.35,SE,139,10.5,15.0,36,0.00,,---,0.00,VWS V14.01,2013-11-03 16:53:00,
2013-11-03 10:58:00,56.3,29.7,28.35,SE,139,6.3,15.0,36,0.00,,---,0.00,VWS V14.01,2013-11-03 16:58:00,
2013-11-03 11:03:00,56.3,29.7,28.35,ESE,117,6.3,8.3,36,0.00,,---,0.00,VWS V14.01,2013-11-03 17:03:00,
2013-11-03 11:08:00,56.7,30.0,28.35,SSE,152,9.6,13.2,36,0.00,,---,0.00,VWS V14.01,2013-11-03 17:08:00,
2013-11-03 11:13:00,56.8,30.2,28.32,SSE,165,5.8,13.2,36,0.00,,---,0.00,VWS V14.01,2013-11-03 17:13:00,
2013-11-03 11:18:00,56.8,30.2,28.32,SSE,168,10.5,14.1,36,0.00,,---,0.00,VWS V14.01,2013-11-03 17:18:00,
2013-11-03 11:24:00,56.7,30.7,28.32,SSE,158,3.6,14.1,37,0.00,,---,0.00,VWS V14.01,2013-11-03 17:24:00,
2013-11-03 11:29:00,57.2,30.5,28.32,ESE,107,8.1,14.1,36,0.00,,---,0.00,VWS V14.01,2013-11-03 17:29:00,
2013-11-03 11:34:00,57.7,31.0,28.32,SE,133,8.1,15.4,36,0.00,,---,0.00,VWS V14.01,2013-11-03 17:34:00,
2013-11-03 11:39:00,57.9,31.1,28.32,ESE,119,6.7,15.4,36,0.00,,---,0.00,VWS V14.01,2013-11-03 17:39:00,
2013-11-03 11:44:00,58.1,31.3,28.29,SSE,150,7.6,15.4,36,0.00,,---,0.00,VWS V14.01,2013-11-03 17:44:00,
2013-11-03 11:49:00,58.6,31.8,28.29,SSW,198,9.6,17.4,36,0.00,,---,0.00,VWS V14.01,2013-11-03 17:49:00,
2013-11-03 11:54:00,58.8,31.2,28.29,ESE,117,4.0,17.4,35,0.00,,---,0.00,VWS V14.01,2013-11-03 17:54:00,
2013-11-03 12:00:00,58.5,30.9,28.29,ESE,116,6.7,17.4,35,0.00,,---,0.00,VWS V14.01,2013-11-03 18:00:00,
2013-11-03 12:05:00,58.5,31.6,28.29,SE,130,10.5,13.2,36,0.00,,---,0.00,VWS V14.01,2013-11-03 18:05:00,
2013-11-03 12:10:00,59.0,31.4,28.26,East,96,7.6,13.2,35,0.00,,---,0.00,VWS V14.01,2013-11-03 18:10:00,
2013-11-03 12:15:00,59.0,31.4,28.26,ESE,118,9.6,17.0,35,0.00,,---,0.00,VWS V14.01,2013-11-03 18:15:00,
2013-11-03 12:20:00,59.2,31.6,28.26,SE,137,7.6,17.0,35,0.00,,---,0.00,VWS V14.01,2013-11-03 18:20:00,
2013-11-03 12:25:00,59.0,31.4,28.26,SSE,151,11.0,17.0,35,0.00,,---,0.00,VWS V14.01,2013-11-03 18:25:00,
2013-11-03 12:30:00,58.8,32.0,28.26,SSE,152,11.9,17.0,36,0.00,,---,0.00,VWS V14.01,2013-11-03 18:30:00,
2013-11-03 12:35:00,59.2,31.6,28.26,SE,133,8.1,17.0,35,0.00,,---,0.00,VWS V14.01,2013-11-03 18:35:00,
2013-11-03 12:40:00,58.6,31.8,28.26,SE,144,11.4,17.0,36,0.00,,---,0.00,VWS V14.01,2013-11-03 18:40:00,
2013-11-03 12:45:00,58.5,31.6,28.26,ESE,104,7.2,17.0,36,0.00,,---,0.00,VWS V14.01,2013-11-03 18:45:00,
2013-11-03 12:51:00,58.8,32.0,28.26,SE,145,15.4,17.0,36,0.00,,---,0.00,VWS V14.01,2013-11-03 18:51:00,
2013-11-03 12:56:00,59.2,32.3,28.23,ESE,110,11.0,17.0,36,0.00,,---,0.00,VWS V14.01,2013-11-03 18:56:00,
2013-11-03 13:01:00,59.5,32.6,28.23,SE,146,5.8,10.5,36,0.00,,---,0.00,VWS V14.01,2013-11-03 19:01:00,
2013-11-03 13:06:00,60.3,33.2,28.23,SSE,165,12.8,13.2,36,0.00,,---,0.00,VWS V14.01,2013-11-03 19:06:00,
2013-11-03 13:11:00,60.3,32.5,28.23,SE,141,9.6,16.8,35,0.00,,---,0.00,VWS V14.01,2013-11-03 19:11:00,
2013-11-03 13:16:00,60.3,32.5,28.23,SE,140,5.8,16.8,35,0.00,,---,0.00,VWS V14.01,2013-11-03 19:16:00,
2013-11-03 13:21:00,60.4,32.7,28.23,NNW,331,8.7,16.8,35,0.00,,---,0.00,VWS V14.01,2013-11-03 19:21:00,
2013-11-03 13:27:00,60.4,33.4,28.23,SE,139,6.3,16.8,36,0.00,,---,0.00,VWS V14.01,2013-11-03 19:27:00,
2013-11-03 13:32:00,60.6,32.8,28.23,SSE,148,7.6,16.8,35,0.00,,---,0.00,VWS V14.01,2013-11-03 19:32:00,
2013-11-03 13:37:00,61.2,33.3,28.23,SE,132,8.7,16.8,35,0.00,,---,0.00,VWS V14.01,2013-11-03 19:37:00,
2013-11-03 13:42:00,62.2,34.3,28.23,SSW,201,8.1,16.8,35,0.00,,---,0.00,VWS V14.01,2013-11-03 19:42:00,
2013-11-03 13:47:00,64.0,35.1,28.23,SE,126,11.4,16.8,34,0.00,,---,0.00,VWS V14.01,2013-11-03 19:47:00,
2013-11-03 13:52:00,65.1,35.3,28.23,WSW,240,6.3,16.8,33,0.00,,---,0.00,VWS V14.01,2013-11-03 19:52:00,
2013-11-03 13:57:00,65.7,35.8,28.20,ESE,105,5.8,16.8,33,0.00,,---,0.00,VWS V14.01,2013-11-03 19:57:00,
2013-11-03 14:03:00,65.1,33.8,28.20,ENE,78,11.0,15.0,31,0.00,,---,0.00,VWS V14.01,2013-11-03 20:03:00,
2013-11-03 14:08:00,64.8,34.2,28.20,East,85,5.8,15.0,32,0.00,,---,0.00,VWS V14.01,2013-11-03 20:08:00,
2013-11-03 14:13:00,65.1,33.8,28.20,ESE,117,10.5,17.0,31,0.00,,---,0.00,VWS V14.01,2013-11-03 20:13:00,
2013-11-03 14:18:00,65.5,34.1,28.20,SSE,161,12.8,17.0,31,0.00,,---,0.00,VWS V14.01,2013-11-03 20:18:00,
2013-11-03 14:24:00,65.8,35.2,28.20,SE,132,4.9,17.0,32,0.00,,---,0.00,VWS V14.01,2013-11-03 20:24:00,
2013-11-03 14:29:00,65.8,33.6,28.20,SE,128,8.7,17.0,30,0.00,,---,0.00,VWS V14.01,2013-11-03 20:29:00,
2013-11-03 14:34:00,64.9,32.8,28.20,ESE,112,5.8,17.0,30,0.00,,---,0.00,VWS V14.01,2013-11-03 20:34:00,
2013-11-03 14:39:00,63.9,32.7,28.20,SE,145,7.6,17.0,31,0.00,,---,0.00,VWS V14.01,2013-11-03 20:39:00,
2013-11-03 14:44:00,63.9,33.5,28.20,SE,135,6.3,17.0,32,0.00,,---,0.00,VWS V14.01,2013-11-03 20:44:00,
2013-11-03 14:49:00,64.8,34.2,28.20,WSW,250,12.8,17.0,32,0.00,,---,0.00,VWS V14.01,2013-11-03 20:49:00,
2013-11-03 14:54:00,65.7,34.2,28.20,ESE,111,3.6,17.0,31,0.00,,---,0.00,VWS V14.01,2013-11-03 20:54:00,
2013-11-03 14:59:00,66.0,34.5,28.20,SE,130,7.6,17.0,31,0.00,,---,0.00,VWS V14.01,2013-11-03 20:59:00,
2013-11-03 15:04:00,65.8,34.4,28.20,ESE,118,10.1,13.2,31,0.00,,---,0.00,VWS V14.01,2013-11-03 21:04:00,
2013-11-03 15:09:00,65.5,33.3,28.20,ESE,105,8.3,15.4,30,0.00,,---,0.00,VWS V14.01,2013-11-03 21:09:00,
2013-11-03 15:14:00,64.6,32.5,28.20,ESE,118,10.1,15.4,30,0.00,,---,0.00,VWS V14.01,2013-11-03 21:14:00,
2013-11-03 15:20:00,64.2,33.0,28.20,SE,139,8.7,15.4,31,0.00,,---,0.00,VWS V14.01,2013-11-03 21:20:00,
2013-11-03 15:25:00,64.6,32.5,28.17,ENE,77,10.5,15.4,30,0.00,,---,0.00,VWS V14.01,2013-11-03 21:25:00,
2013-11-03 15:30:00,64.4,32.3,28.17,ESE,123,8.1,17.4,30,0.00,,---,0.00,VWS V14.01,2013-11-03 21:30:00,
2013-11-03 15:35:00,64.6,33.3,28.17,East,99,11.0,18.8,31,0.00,,---,0.00,VWS V14.01,2013-11-03 21:35:00,
2013-11-03 15:40:00,64.6,33.3,28.17,ESE,118,7.6,18.8,31,0.00,,---,0.00,VWS V14.01,2013-11-03 21:40:00,
2013-11-03 15:45:00,64.2,33.0,28.17,SE,128,5.8,18.8,31,0.00,,---,0.00,VWS V14.01,2013-11-03 21:45:00,
2013-11-03 15:50:00,63.5,33.1,28.17,South,175,5.8,18.8,32,0.00,,---,0.00,VWS V14.01,2013-11-03 21:50:00,
2013-11-03 15:55:00,63.0,32.7,28.17,SE,133,9.6,18.8,32,0.00,,---,0.00,VWS V14.01,2013-11-03 21:55:00,
2013-11-03 16:00:00,62.4,33.0,28.17,SSE,151,15.4,15.4,33,0.00,,---,0.00,VWS V14.01,2013-11-03 22:00:00,
2013-11-03 16:06:00,61.9,32.5,28.17,South,191,8.7,15.4,33,0.00,,---,0.00,VWS V14.01,2013-11-03 22:06:00,
2013-11-03 16:11:00,61.7,32.3,28.17,SE,133,14.5,15.4,33,0.00,,---,0.00,VWS V14.01,2013-11-03 22:11:00,
2013-11-03 16:16:00,61.5,32.9,28.17,SSE,158,8.1,15.4,34,0.00,,---,0.00,VWS V14.01,2013-11-03 22:16:00,
2013-11-03 16:21:00,61.3,32.8,28.17,East,82,8.3,17.0,34,0.00,,---,0.00,VWS V14.01,2013-11-03 22:21:00,
2013-11-03 16:26:00,61.0,32.4,28.17,SE,130,10.1,17.0,34,0.00,,---,0.00,VWS V14.01,2013-11-03 22:26:00,
2013-11-03 16:31:00,60.8,32.3,28.17,SSE,149,8.1,17.0,34,0.00,,---,0.00,VWS V14.01,2013-11-03 22:31:00,
2013-11-03 16:36:00,60.6,32.1,28.17,ESE,103,8.1,17.0,34,0.00,,---,0.00,VWS V14.01,2013-11-03 22:36:00,
2013-11-03 16:41:00,60.6,32.1,28.17,SSE,153,7.6,17.0,34,0.00,,---,0.00,VWS V14.01,2013-11-03 22:41:00,
2013-11-03 16:46:00,60.4,32.0,28.17,SE,139,7.6,17.0,34,0.00,,---,0.00,VWS V14.01,2013-11-03 22:46:00,
2013-11-03 16:51:00,60.4,32.0,28.17,SE,135,8.3,17.0,34,0.00,,---,0.00,VWS V14.01,2013-11-03 22:51:00,
2013-11-03 16:56:00,60.4,32.7,28.17,South,172,5.4,17.0,35,0.00,,---,0.00,VWS V14.01,2013-11-03 22:56:00,
2013-11-03 17:02:00,60.3,32.5,28.17,SE,139,9.6,9.6,35,0.00,,---,0.00,VWS V14.01,2013-11-03 23:02:00,
2013-11-03 17:07:00,60.1,32.4,28.17,SSE,147,8.1,11.4,35,0.00,,---,0.00,VWS V14.01,2013-11-03 23:07:00,
2013-11-03 17:12:00,60.1,32.4,28.17,ESE,117,4.9,17.4,35,0.00,,---,0.00,VWS V14.01,2013-11-03 23:12:00,
2013-11-03 17:17:00,60.1,32.4,28.17,ESE,123,8.3,17.4,35,0.00,,---,0.00,VWS V14.01,2013-11-03 23:17:00,
2013-11-03 17:22:00,60.1,32.4,28.17,ESE,119,6.3,17.4,35,0.00,,---,0.00,VWS V14.01,2013-11-03 23:22:00,
2013-11-03 17:27:00,59.9,32.2,28.17,SSE,160,8.3,17.4,35,0.00,,---,0.00,VWS V14.01,2013-11-03 23:27:00,
2013-11-03 17:32:00,59.7,32.0,28.17,South,189,7.6,17.4,35,0.00,,---,0.00,VWS V14.01,2013-11-03 23:32:00,
2013-11-03 17:37:00,59.5,31.9,28.17,ESE,113,7.6,17.4,35,0.00,,---,0.00,VWS V14.01,2013-11-03 23:37:00,
2013-11-03 17:42:00,59.5,31.9,28.17,SE,142,3.6,17.4,35,0.00,,---,0.00,VWS V14.01,2013-11-03 23:42:00,
2013-11-03 17:47:00,59.4,31.7,28.17,SE,124,8.3,17.4,35,0.00,,---,0.00,VWS V14.01,2013-11-03 23:47:00,
2013-11-03 17:53:00,59.4,31.7,28.17,ESE,117,8.1,17.4,35,0.00,,---,0.00,VWS V14.01,2013-11-03 23:53:00,
2013-11-03 17:58:00,59.4,32.4,28.17,SSE,152,10.5,17.4,36,0.00,,---,0.00,VWS V14.01,2013-11-03 23:58:00,
2013-11-03 18:03:00,59.2,32.3,28.17,SE,127,5.8,11.4,36,0.00,,---,0.00,VWS V14.01,2013-11-04 00:03:00,
2013-11-03 18:08:00,59.2,32.3,28.17,SE,136,8.3,14.5,36,0.00,,---,0.00,VWS V14.01,2013-11-04 00:08:00,
2013-11-03 18:13:00,59.0,32.1,28.17,East,87,8.1,17.4,36,0.00,,---,0.00,VWS V14.01,2013-11-04 00:13:00,
2013-11-03 18:18:00,58.8,32.0,28.17,SSE,147,11.0,17.4,36,0.00,,---,0.00,VWS V14.01,2013-11-04 00:18:00,
2013-11-03 18:24:00,58.8,32.0,28.17,SSE,159,9.6,21.9,36,0.00,,---,0.00,VWS V14.01,2013-11-04 00:24:00,
2013-11-03 18:29:00,58.6,31.8,28.17,ESE,109,6.3,21.9,36,0.00,,---,0.00,VWS V14.01,2013-11-04 00:29:00,
2013-11-03 18:34:00,58.5,31.6,28.17,ESE,117,8.7,21.9,36,0.00,,---,0.00,VWS V14.01,2013-11-04 00:34:00,
2013-11-03 18:39:00,58.3,32.2,28.17,SE,129,5.8,21.9,37,0.00,,---,0.00,VWS V14.01,2013-11-04 00:39:00,
2013-11-03 18:44:00,58.1,32.0,28.17,SSE,153,11.0,21.9,37,0.00,,---,0.00,VWS V14.01,2013-11-04 00:44:00,
2013-11-03 18:49:00,57.9,31.8,28.17,SSE,150,8.3,21.9,37,0.00,,---,0.00,VWS V14.01,2013-11-04 00:49:00,
2013-11-03 18:54:00,57.9,31.8,28.17,SE,129,5.8,21.9,37,0.00,,---,0.00,VWS V14.01,2013-11-04 00:54:00,
2013-11-03 18:59:00,57.7,31.7,28.17,SE,130,9.2,21.9,37,0.00,,---,0.00,VWS V14.01,2013-11-04 00:59:00,
2013-11-03 19:04:00,57.7,31.7,28.17,SE,128,8.7,19.7,37,0.00,,---,0.00,VWS V14.01,2013-11-04 01:04:00,
2013-11-03 19:09:00,57.7,31.7,28.17,SE,146,12.8,21.5,37,0.00,,---,0.00,VWS V14.01,2013-11-04 01:09:00,
2013-11-03 19:14:00,57.6,31.5,28.17,ESE,110,8.1,21.5,37,0.00,,---,0.00,VWS V14.01,2013-11-04 01:14:00,
2013-11-03 19:20:00,57.6,31.5,28.17,SE,132,6.3,21.5,37,0.00,,---,0.00,VWS V14.01,2013-11-04 01:20:00,
2013-11-03 19:25:00,57.6,31.5,28.14,ESE,104,11.0,21.5,37,0.00,,---,0.00,VWS V14.01,2013-11-04 01:25:00,
2013-11-03 19:30:00,57.4,31.3,28.14,SSE,156,8.7,21.5,37,0.00,,---,0.00,VWS V14.01,2013-11-04 01:30:00,
2013-11-03 19:35:00,57.4,31.3,28.14,SE,134,7.6,21.5,37,0.00,,---,0.00,VWS V14.01,2013-11-04 01:35:00,
2013-11-03 19:40:00,57.4,31.3,28.17,South,184,3.6,21.5,37,0.00,,---,0.00,VWS V14.01,2013-11-04 01:40:00,
2013-11-03 19:45:00,57.2,31.8,28.17,SE,141,10.1,21.5,38,0.00,,---,0.00,VWS V14.01,2013-11-04 01:45:00,
2013-11-03 19:50:00,57.2,31.8,28.17,SE,141,6.3,21.5,38,0.00,,---,0.00,VWS V14.01,2013-11-04 01:50:00,
2013-11-03 19:55:00,57.0,31.7,28.17,SSE,152,8.7,21.5,38,0.00,,---,0.00,VWS V14.01,2013-11-04 01:55:00,
2013-11-03 20:00:00,57.0,31.7,28.17,East,100,11.0,12.8,38,0.00,,---,0.00,VWS V14.01,2013-11-04 02:00:00,
2013-11-03 20:05:00,57.0,31.7,28.17,SSE,165,8.7,15.4,38,0.00,,---,0.00,VWS V14.01,2013-11-04 02:05:00,
2013-11-03 20:11:00,56.8,32.2,28.17,SSE,159,5.8,15.4,39,0.00,,---,0.00,VWS V14.01,2013-11-04 02:11:00,
2013-11-03 20:16:00,56.8,32.2,28.17,South,170,10.5,15.4,39,0.00,,---,0.00,VWS V14.01,2013-11-04 02:16:00,
2013-11-03 20:21:00,56.8,32.2,28.17,South,178,4.9,19.2,39,0.00,,---,0.00,VWS V14.01,2013-11-04 02:21:00,
2013-11-03 20:26:00,56.8,32.2,28.17,ESE,116,6.3,19.2,39,0.00,,---,0.00,VWS V14.01,2013-11-04 02:26:00,
2013-11-03 20:31:00,56.7,32.0,28.17,SE,144,10.5,19.2,39,0.00,,---,0.00,VWS V14.01,2013-11-04 02:31:00,
2013-11-03 20:36:00,56.7,32.6,28.17,SE,135,8.7,19.2,40,0.00,,---,0.00,VWS V14.01,2013-11-04 02:36:00,
2013-11-03 20:41:00,56.7,32.6,28.17,ESE,114,12.3,19.2,40,0.00,,---,0.00,VWS V14.01,2013-11-04 02:41:00,
2013-11-03 20:46:00,56.7,32.6,28.17,SSE,158,4.9,19.2,40,0.00,,---,0.00,VWS V14.01,2013-11-04 02:46:00,
2013-11-03 20:51:00,56.5,32.5,28.17,SSE,158,8.7,19.2,40,0.00,,---,0.00,VWS V14.01,2013-11-04 02:51:00,
2013-11-03 20:56:00,56.5,32.5,28.20,ESE,119,10.1,19.2,40,0.00,,---,0.00,VWS V14.01,2013-11-04 02:56:00,
2013-11-03 21:02:00,56.3,32.3,28.20,West,273,8.1,17.0,40,0.00,,---,0.00,VWS V14.01,2013-11-04 03:02:00,
2013-11-03 21:07:00,56.3,32.3,28.20,SSE,157,5.8,17.0,40,0.00,,---,0.00,VWS V14.01,2013-11-04 03:07:00,
2013-11-03 21:12:00,56.1,32.8,28.20,SSE,147,10.1,17.0,41,0.00,,---,0.00,VWS V14.01,2013-11-04 03:12:00,
2013-11-03 21:17:00,56.1,32.8,28.20,SSE,162,8.1,17.0,41,0.00,,---,0.00,VWS V14.01,2013-11-04 03:17:00,
2013-11-03 21:22:00,55.9,32.6,28.20,SSW,198,10.5,17.0,41,0.00,,---,0.00,VWS V14.01,2013-11-04 03:22:00,
2013-11-03 21:27:00,55.9,32.6,28.20,South,191,6.3,17.0,41,0.00,,---,0.00,VWS V14.01,2013-11-04 03:27:00,
2013-11-03 21:32:00,55.8,32.4,28.20,SSE,155,6.3,17.0,41,0.00,,---,0.00,VWS V14.01,2013-11-04 03:32:00,
2013-11-03 21:37:00,55.6,32.9,28.20,SE,127,5.8,17.0,42,0.00,,---,0.00,VWS V14.01,2013-11-04 03:37:00,
2013-11-03 21:43:00,55.4,32.7,28.20,SW,224,4.0,17.0,42,0.00,,---,0.00,VWS V14.01,2013-11-04 03:43:00,
2013-11-03 21:48:00,55.2,33.1,28.20,SE,131,8.7,17.0,43,0.00,,---,0.00,VWS V14.01,2013-11-04 03:48:00,
2013-11-03 21:53:00,55.0,33.0,28.20,SSE,152,5.8,17.0,43,0.00,,---,0.00,VWS V14.01,2013-11-04 03:53:00,
2013-11-03 21:58:00,54.9,32.8,28.17,SE,136,6.3,17.0,43,0.00,,---,0.00,VWS V14.01,2013-11-04 03:58:00,
2013-11-03 22:03:00,54.7,33.2,28.17,SSE,157,7.6,12.3,44,0.00,,---,0.00,VWS V14.01,2013-11-04 04:03:00,
2013-11-03 22:08:00,54.5,33.0,28.17,ESE,120,8.1,12.3,44,0.00,,---,0.00,VWS V14.01,2013-11-04 04:08:00,
2013-11-03 22:13:00,54.5,33.0,28.20,SE,140,5.8,14.5,44,0.00,,---,0.00,VWS V14.01,2013-11-04 04:13:00,
2013-11-03 22:18:00,54.5,33.0,28.20,ENE,62,13.2,14.5,44,0.00,,---,0.00,VWS V14.01,2013-11-04 04:18:00,
2013-11-03 22:23:00,54.5,33.0,28.20,SE,127,5.4,14.5,44,0.00,,---,0.00,VWS V14.01,2013-11-04 04:23:00,
2013-11-03 22:28:00,54.3,32.9,28.20,ESE,117,8.1,14.5,44,0.00,,---,0.00,VWS V14.01,2013-11-04 04:28:00,
2013-11-03 22:33:00,54.3,33.5,28.20,ESE,116,4.5,14.5,45,0.00,,---,0.00,VWS V14.01,2013-11-04 04:33:00,
2013-11-03 22:38:00,54.1,33.3,28.20,SE,129,8.3,15.4,45,0.00,,---,0.00,VWS V14.01,2013-11-04 04:38:00,
2013-11-03 22:44:00,54.1,33.3,28.20,South,170,6.7,15.4,45,0.00,,---,0.00,VWS V14.01,2013-11-04 04:44:00,
2013-11-03 22:49:00,54.1,33.3,28.20,South,177,7.2,15.4,45,0.00,,---,0.00,VWS V14.01,2013-11-04 04:49:00,
2013-11-03 22:54:00,54.1,33.3,28.20,SE,143,6.3,15.4,45,0.00,,---,0.00,VWS V14.01,2013-11-04 04:54:00,
2013-11-03 22:59:00,54.0,33.1,28.20,SE,130,6.3,15.4,45,0.00,,---,0.00,VWS V14.01,2013-11-04 04:59:00,
2013-11-03 23:01:00,54.0,33.1,28.20,SE,136,6.3,11.0,45,0.00,,---,0.00,VWS V14.01,2013-11-04 05:01:00,
2013-11-03 23:02:00,54.0,33.1,28.20,South,170,8.1,11.0,45,0.00,,---,0.00,VWS V14.01,2013-11-04 05:02:00,
2013-11-03 23:07:00,54.0,33.7,28.20,South,172,7.6,11.0,46,0.00,,---,0.00,VWS V14.01,2013-11-04 05:07:00,
2013-11-03 23:12:00,54.0,33.7,28.20,SSE,154,8.7,17.0,46,0.00,,---,0.00,VWS V14.01,2013-11-04 05:12:00,
2013-11-03 23:17:00,54.0,33.7,28.20,East,95,8.3,17.0,46,0.00,,---,0.00,VWS V14.01,2013-11-04 05:17:00,
2013-11-03 23:22:00,53.8,33.5,28.20,South,190,8.1,17.0,46,0.00,,---,0.00,VWS V14.01,2013-11-04 05:22:00,
2013-11-03 23:27:00,53.8,33.5,28.20,SSE,167,8.3,17.0,46,0.00,,---,0.00,VWS V14.01,2013-11-04 05:27:00,
2013-11-03 23:33:00,53.8,33.5,28.20,ESE,104,8.1,17.0,46,0.00,,---,0.00,VWS V14.01,2013-11-04 05:33:00,
2013-11-03 23:38:00,53.8,33.5,28.20,SSE,147,5.4,17.0,46,0.00,,---,0.00,VWS V14.01,2013-11-04 05:38:00,
2013-11-03 23:43:00,53.8,33.5,28.20,SSE,167,6.3,17.0,46,0.00,,---,0.00,VWS V14.01,2013-11-04 05:43:00,
2013-11-03 23:48:00,54.0,33.7,28.20,South,187,5.8,17.0,46,0.00,,---,0.00,VWS V14.01,2013-11-04 05:48:00,
2013-11-03 23:53:00,54.0,33.7,28.20,ESE,111,6.3,17.0,46,0.00,,---,0.00,VWS V14.01,2013-11-04 05:53:00,
2013-11-03 23:58:00,54.0,33.7,28.20,SE,134,5.8,17.0,46,0.00,,---,0.00,VWS V14.01,2013-11-04 05:58:00,